TimeCST,TemperatureF,Dew PointF,Humidity,Sea Level PressureIn,VisibilityMPH,Wind Direction,Wind SpeedMPH,Gust SpeedMPH,PrecipitationIn,Events,Conditions,WindDirDegrees,DateUTC
12:15 AM,32.0,28.4,87,29.87,7.0,ESE,6.9,-,N/A,,Scattered Clouds,120,2013-12-02 06:15:00
12:35 AM,32.0,28.4,87,29.87,7.0,ESE,6.9,-,N/A,,Partly Cloudy,120,2013-12-02 06:35:00
12:55 AM,32.0,28.4,87,29.86,7.0,ESE,6.9,-,N/A,,Mostly Cloudy,120,2013-12-02 06:55:00
1:15 AM,32.0,28.4,87,29.85,7.0,SE,6.9,-,N/A,,Mostly Cloudy,130,2013-12-02 07:15:00
1:35 AM,32.0,28.4,87,29.85,7.0,SE,5.8,-,N/A,,Partly Cloudy,130,2013-12-02 07:35:00
1:55 AM,32.0,28.4,87,29.84,7.0,SE,6.9,-,N/A,,Partly Cloudy,130,2013-12-02 07:55:00
2:15 AM,32.0,28.4,87,29.84,7.0,SE,6.9,-,N/A,,Clear,130,2013-12-02 08:15:00
2:35 AM,30.2,28.4,93,29.83,7.0,ESE,6.9,-,N/A,,Scattered Clouds,120,2013-12-02 08:35:00
2:55 AM,30.2,28.4,93,29.83,7.0,SE,8.1,-,N/A,,Mostly Cloudy,130,2013-12-02 08:55:00
3:15 AM,30.2,28.4,93,29.82,7.0,SE,6.9,-,N/A,,Mostly Cloudy,130,2013-12-02 09:15:00
3:35 AM,32.0,28.4,87,29.81,7.0,SE,6.9,-,N/A,,Partly Cloudy,140,2013-12-02 09:35:00
3:55 AM,30.2,28.4,93,29.80,7.0,SE,6.9,-,N/A,,Partly Cloudy,140,2013-12-02 09:55:00
4:15 AM,30.2,28.4,93,29.79,7.0,SE,8.1,-,N/A,,Clear,130,2013-12-02 10:15:00
4:35 AM,30.2,28.4,93,29.78,6.0,SE,9.2,-,N/A,,Clear,140,2013-12-02 10:35:00
4:55 AM,30.2,26.6,86,29.76,6.0,SE,9.2,-,N/A,,Clear,140,2013-12-02 10:55:00
5:15 AM,30.2,26.6,86,29.76,6.0,SE,6.9,-,N/A,,Clear,130,2013-12-02 11:15:00
5:35 AM,30.2,28.4,93,29.75,7.0,SE,8.1,-,N/A,,Clear,140,2013-12-02 11:35:00
5:55 AM,32.0,28.4,87,29.75,7.0,SE,8.1,-,N/A,,Clear,130,2013-12-02 11:55:00
6:15 AM,32.0,28.4,87,29.74,7.0,SE,9.2,-,N/A,,Clear,130,2013-12-02 12:15:00
6:35 AM,32.0,30.2,93,29.73,7.0,SE,6.9,-,N/A,,Mostly Cloudy,130,2013-12-02 12:35:00
6:55 AM,33.8,30.2,87,29.72,7.0,SE,8.1,-,N/A,,Overcast,140,2013-12-02 12:55:00
7:15 AM,33.8,30.2,87,29.71,7.0,SE,11.5,-,N/A,,Overcast,140,2013-12-02 13:15:00
7:35 AM,33.8,30.2,87,29.70,6.0,SE,10.4,-,N/A,,Overcast,140,2013-12-02 13:35:00
7:55 AM,33.8,30.2,87,29.69,6.0,SE,11.5,-,N/A,,Mostly Cloudy,140,2013-12-02 13:55:00
8:15 AM,35.6,32.0,87,29.70,7.0,SSE,10.4,-,N/A,,Mostly Cloudy,150,2013-12-02 14:15:00
8:35 AM,35.6,32.0,87,29.68,7.0,SSE,12.7,-,N/A,,Partly Cloudy,150,2013-12-02 14:35:00
8:55 AM,35.6,32.0,87,29.67,7.0,SSE,11.5,-,N/A,,Clear,150,2013-12-02 14:55:00
9:15 AM,37.4,32.0,81,29.67,8.0,SSE,9.2,-,N/A,,Mostly Cloudy,160,2013-12-02 15:15:00
9:35 AM,39.2,33.8,81,29.67,8.0,South,11.5,-,N/A,,Overcast,170,2013-12-02 15:35:00
9:55 AM,39.2,33.8,81,29.66,8.0,South,11.5,-,N/A,,Mostly Cloudy,170,2013-12-02 15:55:00
10:15 AM,39.2,35.6,87,29.66,7.0,South,10.4,17.3,N/A,,Mostly Cloudy,170,2013-12-02 16:15:00
10:35 AM,41.0,35.6,81,29.64,7.0,SSE,13.8,-,N/A,,Mostly Cloudy,150,2013-12-02 16:35:00
10:55 AM,41.0,35.6,81,29.62,8.0,SSE,17.3,-,N/A,,Mostly Cloudy,160,2013-12-02 16:55:00
11:15 AM,44.6,37.4,76,29.60,9.0,SSE,17.3,-,N/A,,Scattered Clouds,160,2013-12-02 17:15:00
11:35 AM,46.4,37.4,71,29.59,9.0,SSE,16.1,21.9,N/A,,Clear,160,2013-12-02 17:35:00
11:55 AM,48.2,37.4,66,29.60,10.0,South,13.8,20.7,N/A,,Clear,180,2013-12-02 17:55:00
12:15 PM,50.0,37.4,62,29.60,10.0,SSW,15.0,-,N/A,,Clear,200,2013-12-02 18:15:00
12:35 PM,50.0,37.4,62,29.59,10.0,SSW,13.8,-,N/A,,Clear,200,2013-12-02 18:35:00
12:55 PM,50.0,37.4,62,29.58,10.0,SW,13.8,-,N/A,,Clear,220,2013-12-02 18:55:00
1:15 PM,50.0,35.6,58,29.57,10.0,SSW,15.0,-,N/A,,Clear,210,2013-12-02 19:15:00
1:35 PM,50.0,37.4,62,29.57,10.0,SW,13.8,-,N/A,,Clear,220,2013-12-02 19:35:00
1:55 PM,51.8,37.4,58,29.56,10.0,SSW,11.5,-,N/A,,Clear,210,2013-12-02 19:55:00
2:15 PM,51.8,37.4,58,29.56,-9999.0,SW,10.4,16.1,N/A,,Clear,220,2013-12-02 20:15:00
2:35 PM,53.6,37.4,54,29.56,10.0,SW,11.5,-,N/A,,Clear,230,2013-12-02 20:35:00
2:55 PM,53.6,37.4,54,29.56,10.0,SW,11.5,-,N/A,,Clear,230,2013-12-02 20:55:00
3:15 PM,53.6,37.4,54,29.56,10.0,SW,10.4,-,N/A,,Clear,230,2013-12-02 21:15:00
3:35 PM,55.4,35.6,47,29.55,10.0,SW,10.4,-,N/A,,Clear,230,2013-12-02 21:35:00
3:55 PM,53.6,35.6,51,29.55,10.0,SW,10.4,-,N/A,,Clear,220,2013-12-02 21:55:00
4:15 PM,51.8,35.6,54,29.55,10.0,SSW,9.2,-,N/A,,Clear,210,2013-12-02 22:15:00
4:35 PM,48.2,33.8,58,29.54,10.0,SSW,8.1,-,N/A,,Clear,200,2013-12-02 22:35:00
4:55 PM,46.4,33.8,62,29.55,10.0,SSW,8.1,-,N/A,,Clear,200,2013-12-02 22:55:00
5:15 PM,48.2,35.6,62,29.55,10.0,SSW,8.1,-,N/A,,Clear,200,2013-12-02 23:15:00
5:35 PM,42.8,33.8,70,29.56,10.0,SSW,10.4,-,N/A,,Clear,210,2013-12-02 23:35:00
5:55 PM,42.8,33.8,70,29.57,10.0,SW,9.2,-,N/A,,Clear,220,2013-12-02 23:55:00
6:15 PM,44.6,35.6,71,29.58,10.0,SW,6.9,-,N/A,,Clear,220,2013-12-03 00:15:00
6:35 PM,44.6,35.6,71,29.58,10.0,SSW,6.9,-,N/A,,Mostly Cloudy,200,2013-12-03 00:35:00
6:55 PM,44.6,35.6,71,29.58,10.0,Calm,Calm,-,N/A,,Overcast,0,2013-12-03 00:55:00
7:15 PM,44.6,35.6,71,29.59,10.0,Calm,Calm,-,N/A,,Overcast,0,2013-12-03 01:15:00
7:35 PM,44.6,35.6,71,29.59,10.0,South,4.6,-,N/A,,Scattered Clouds,170,2013-12-03 01:35:00
7:55 PM,42.8,35.6,76,29.58,10.0,South,6.9,-,N/A,,Clear,180,2013-12-03 01:55:00
8:15 PM,44.6,35.6,71,29.58,10.0,South,10.4,-,N/A,,Clear,180,2013-12-03 02:15:00
8:35 PM,42.8,35.6,76,29.58,10.0,South,10.4,-,N/A,,Clear,190,2013-12-03 02:35:00
8:55 PM,42.8,35.6,76,29.58,10.0,South,6.9,-,N/A,,Clear,170,2013-12-03 02:55:00
9:15 PM,42.8,35.6,76,29.58,10.0,South,8.1,-,N/A,,Clear,170,2013-12-03 03:15:00
9:35 PM,41.0,35.6,81,29.57,10.0,South,9.2,-,N/A,,Clear,180,2013-12-03 03:35:00
9:55 PM,41.0,35.6,81,29.58,10.0,South,4.6,-,N/A,,Clear,170,2013-12-03 03:55:00
10:15 PM,39.2,33.8,81,29.59,10.0,South,5.8,-,N/A,,Clear,170,2013-12-03 04:15:00
10:35 PM,41.0,35.6,81,29.58,10.0,South,5.8,-,N/A,,Clear,170,2013-12-03 04:35:00
10:55 PM,39.2,35.6,87,29.58,10.0,SSE,4.6,-,N/A,,Clear,150,2013-12-03 04:55:00
11:15 PM,37.4,35.6,93,29.57,10.0,SE,4.6,-,N/A,,Clear,140,2013-12-03 05:15:00
11:35 PM,37.4,35.6,93,29.57,10.0,SSE,4.6,-,N/A,,Clear,150,2013-12-03 05:35:00
11:55 PM,37.4,35.6,93,29.57,9.0,SSE,4.6,-,N/A,,Clear,160,2013-12-03 05:55:00